Time;durP1;ratioP1;P1;durP2;ratioP2;P2;SDS_P1;SDS_P2;PMS_P1;PMS_P2;Temp;Humidity;BMP_temperature;BMP_pressure;BME280_temperature;BME280_humidity;BME280_pressure;Samples;Min_cycle;Max_cycle;Signal;HPM_P1;HPM_P2
2021/10/01 00:01:42;;;;;;;4.55;1.00;;;13.00;99.90;;;;;;5077541;28;20486;-65
2021/10/01 00:04:07;;;;;;;8.13;1.10;;;13.00;99.90;;;;;;5076543;28;20150;-65
2021/10/01 00:06:33;;;;;;;7.13;1.17;;;12.90;99.90;;;;;;5060325;28;20040;-65
2021/10/01 00:08:59;;;;;;;2.67;0.80;;;13.00;99.90;;;;;;5061724;28;20425;-65
2021/10/01 00:11:24;;;;;;;5.88;1.48;;;13.00;99.90;;;;;;5078947;28;20067;-65
2021/10/01 00:13:50;;;;;;;2.58;0.60;;;13.00;99.90;;;;;;5058702;28;20052;-65
2021/10/01 00:16:16;;;;;;;9.10;0.98;;;12.90;99.90;;;;;;5078210;28;20036;-65
2021/10/01 00:18:41;;;;;;;3.17;0.57;;;13.00;99.90;;;;;;5059053;28;20033;-65
2021/10/01 00:21:07;;;;;;;6.57;0.77;;;12.90;99.90;;;;;;5078523;28;20044;-65
2021/10/01 00:23:33;;;;;;;8.43;1.20;;;13.00;99.90;;;;;;5075648;28;20127;-65
2021/10/01 00:26:00;;;;;;;9.63;1.40;;;12.90;99.90;;;;;;5079931;28;20043;-65
2021/10/01 00:28:26;;;;;;;7.28;1.38;;;13.00;99.90;;;;;;5056836;28;20051;-65
2021/10/01 00:30:51;;;;;;;3.40;0.57;;;12.90;99.90;;;;;;5074767;28;20032;-65
2021/10/01 00:33:17;;;;;;;3.67;0.93;;;12.90;99.90;;;;;;5057272;28;20044;-65
2021/10/01 00:35:43;;;;;;;5.10;0.95;;;12.90;99.90;;;;;;5058589;28;20094;-65
2021/10/01 00:38:09;;;;;;;3.47;0.80;;;12.90;99.90;;;;;;5059104;28;20036;-65
2021/10/01 00:40:34;;;;;;;4.18;0.70;;;12.80;99.90;;;;;;5055930;28;20048;-65
2021/10/01 00:43:00;;;;;;;5.60;1.00;;;12.80;99.90;;;;;;5054952;28;20105;-65
2021/10/01 00:45:26;;;;;;;4.22;0.98;;;12.80;99.90;;;;;;5061062;28;20056;-65
2021/10/01 00:47:51;;;;;;;3.58;0.80;;;12.80;99.90;;;;;;5073990;28;20060;-65
2021/10/01 00:50:17;;;;;;;3.00;0.70;;;12.80;99.90;;;;;;5074225;28;20041;-65
2021/10/01 00:52:44;;;;;;;3.95;0.93;;;12.70;99.90;;;;;;5075277;28;20402;-65
2021/10/01 00:55:10;;;;;;;6.47;1.65;;;12.70;99.90;;;;;;5076919;28;20038;-65
2021/10/01 00:57:35;;;;;;;5.47;1.20;;;12.80;99.90;;;;;;5077571;28;20159;-65
2021/10/01 01:00:02;;;;;;;5.85;0.85;;;12.70;99.90;;;;;;5058375;28;20072;-65
2021/10/01 01:02:28;;;;;;;6.70;1.05;;;12.70;99.90;;;;;;5061247;28;20043;-65
2021/10/01 01:04:54;;;;;;;4.47;0.95;;;12.70;99.90;;;;;;5056526;28;20040;-65
2021/10/01 01:07:19;;;;;;;5.07;1.38;;;12.70;99.90;;;;;;5077416;28;20036;-64
2021/10/01 01:09:59;;;;;;;2.45;0.57;;;12.70;99.90;;;;;;5056534;28;20078;-65
2021/10/01 01:12:47;;;;;;;4.20;0.90;;;12.60;99.90;;;;;;5060528;28;20044;-65
2021/10/01 01:15:17;;;;;;;4.60;0.90;;;12.70;99.90;;;;;;5059147;28;20119;-65
2021/10/01 01:17:47;;;;;;;4.13;0.85;;;12.60;99.90;;;;;;5062390;28;20051;-65
2021/10/01 01:20:29;;;;;;;4.65;0.90;;;12.70;99.90;;;;;;5074488;28;20043;-65
2021/10/01 01:23:17;;;;;;;3.72;1.00;;;12.60;99.90;;;;;;5058331;28;20155;-67
2021/10/01 01:26:10;;;;;;;6.40;0.88;;;12.60;99.90;;;;;;5076901;28;20682;-68
2021/10/01 01:29:13;;;;;;;4.38;1.23;;;12.70;99.90;;;;;;5057135;28;20585;-68
2021/10/01 01:31:42;;;;;;;4.85;0.75;;;12.70;99.90;;;;;;5077259;28;20036;-68
2021/10/01 01:34:09;;;;;;;8.73;1.45;;;12.70;99.90;;;;;;5070630;28;20040;-68
2021/10/01 01:36:36;;;;;;;3.90;1.05;;;12.60;99.90;;;;;;5079370;28;20074;-68
2021/10/01 01:39:02;;;;;;;7.43;1.17;;;12.60;99.90;;;;;;5056878;28;20044;-68
2021/10/01 01:41:31;;;;;;;4.97;0.57;;;12.70;99.90;;;;;;5056034;28;20045;-68
2021/10/01 01:43:59;;;;;;;4.35;0.70;;;12.70;99.90;;;;;;5062198;28;20063;-68
2021/10/01 01:46:25;;;;;;;4.00;0.93;;;12.70;99.90;;;;;;5038763;28;20440;-68
2021/10/01 01:48:52;;;;;;;5.25;1.42;;;12.70;99.90;;;;;;5055531;28;20044;-68
2021/10/01 01:51:18;;;;;;;5.03;0.95;;;12.70;99.90;;;;;;5055924;28;20028;-68
2021/10/01 01:53:45;;;;;;;4.43;0.82;;;12.70;99.90;;;;;;5059318;28;20036;-67
2021/10/01 01:56:11;;;;;;;6.82;0.80;;;12.70;99.90;;;;;;5072698;28;20087;-67
2021/10/01 01:58:38;;;;;;;3.97;0.63;;;12.70;99.90;;;;;;5075389;28;20102;-68
2021/10/01 02:01:06;;;;;;;6.53;1.13;;;12.70;99.90;;;;;;5056576;28;20044;-68
2021/10/01 02:03:34;;;;;;;4.45;1.15;;;12.70;99.90;;;;;;5054581;28;20045;-68
2021/10/01 02:06:00;;;;;;;3.70;0.70;;;12.70;99.90;;;;;;5075443;28;20044;-67
2021/10/01 02:08:27;;;;;;;6.15;0.65;;;12.70;99.90;;;;;;5058329;28;20035;-67
2021/10/01 02:10:54;;;;;;;4.93;0.93;;;12.70;99.90;;;;;;5058217;28;20413;-68
2021/10/01 02:13:22;;;;;;;5.68;1.08;;;12.70;99.90;;;;;;5054619;28;20048;-68
2021/10/01 02:15:52;;;;;;;6.45;1.45;;;12.60;99.90;;;;;;5041069;28;20394;-68
2021/10/01 02:18:25;;;;;;;3.95;0.57;;;12.70;99.90;;;;;;5078055;28;20109;-68
2021/10/01 02:20:52;;;;;;;5.20;0.70;;;12.70;99.90;;;;;;5061900;28;20490;-68
2021/10/01 02:23:18;;;;;;;3.47;0.55;;;12.70;99.90;;;;;;5067864;28;20032;-67
2021/10/01 02:28:34;;;;;;;5.30;0.98;;;12.70;99.90;;;;;;5061680;28;20052;-64
2021/10/01 02:31:05;;;;;;;10.25;1.52;;;12.70;99.90;;;;;;5063407;28;20033;-64
2021/10/01 02:33:39;;;;;;;5.90;1.48;;;12.70;99.90;;;;;;5070109;28;20040;-65
2021/10/01 02:36:04;;;;;;;4.05;0.70;;;12.70;99.90;;;;;;5082218;28;20036;-64
2021/10/01 02:38:30;;;;;;;3.67;0.50;;;12.70;99.90;;;;;;5063939;28;20101;-65
2021/10/01 02:40:56;;;;;;;4.85;1.38;;;12.70;99.90;;;;;;5079981;28;20040;-65
2021/10/01 02:43:21;;;;;;;3.15;0.50;;;12.70;99.90;;;;;;5085468;28;20124;-65
2021/10/01 02:45:47;;;;;;;3.92;0.80;;;12.70;99.90;;;;;;5068086;28;20053;-65
2021/10/01 02:48:13;;;;;;;4.47;0.73;;;12.60;99.90;;;;;;5066213;28;20082;-64
2021/10/01 02:50:42;;;;;;;6.35;1.48;;;12.60;99.90;;;;;;5085435;28;20056;-64
2021/10/01 02:53:25;;;;;;;4.63;0.70;;;12.60;99.90;;;;;;5087029;28;20036;-64
2021/10/01 02:56:06;;;;;;;6.65;0.70;;;12.60;99.90;;;;;;5087924;28;20121;-64
2021/10/01 02:58:39;;;;;;;7.63;0.65;;;12.60;99.90;;;;;;5084337;28;20039;-65
2021/10/01 03:01:08;;;;;;;4.30;0.82;;;12.60;99.90;;;;;;5085738;28;20126;-65
2021/10/01 03:03:40;;;;;;;3.67;0.77;;;12.70;99.90;;;;;;5073042;28;20132;-65
2021/10/01 03:06:06;;;;;;;7.22;0.80;;;12.60;99.90;;;;;;5084015;28;20655;-65
2021/10/01 03:08:33;;;;;;;3.95;0.70;;;12.60;99.90;;;;;;5081560;28;20035;-65
2021/10/01 03:11:01;;;;;;;4.13;0.70;;;12.60;99.90;;;;;;5080059;28;20039;-65
2021/10/01 03:13:27;;;;;;;5.78;0.95;;;12.60;99.90;;;;;;5069400;28;20036;-65
2021/10/01 03:15:56;;;;;;;4.45;0.80;;;12.50;99.90;;;;;;5067403;28;20044;-65
2021/10/01 03:18:22;;;;;;;4.28;1.05;;;12.60;99.90;;;;;;5083235;28;20072;-65
2021/10/01 03:20:48;;;;;;;7.50;1.00;;;12.50;99.90;;;;;;5080942;28;20456;-66
2021/10/01 03:23:21;;;;;;;3.78;0.65;;;12.50;99.90;;;;;;5084940;28;20441;-67
2021/10/01 03:25:48;;;;;;;2.45;0.60;;;12.50;99.90;;;;;;5080087;28;20090;-67
2021/10/01 03:28:16;;;;;;;4.18;0.90;;;12.40;99.90;;;;;;5059289;28;20125;-67
2021/10/01 03:30:45;;;;;;;8.73;1.55;;;12.40;99.90;;;;;;5064653;28;20546;-67
2021/10/01 03:33:11;;;;;;;8.52;1.35;;;12.30;99.90;;;;;;5062111;28;20053;-67
2021/10/01 03:35:40;;;;;;;5.97;1.13;;;12.30;99.90;;;;;;5083298;28;20044;-67
2021/10/01 03:38:06;;;;;;;4.78;1.10;;;12.30;99.90;;;;;;5062535;28;20104;-67
2021/10/01 03:40:32;;;;;;;3.78;0.77;;;12.30;99.90;;;;;;5059045;28;20052;-67
2021/10/01 03:42:58;;;;;;;3.72;0.68;;;12.20;99.90;;;;;;5075598;28;20058;-66
2021/10/01 03:45:24;;;;;;;5.13;1.25;;;12.30;99.90;;;;;;5059512;28;20048;-67
2021/10/01 03:47:50;;;;;;;4.45;0.85;;;12.20;99.90;;;;;;5075272;28;20440;-67
2021/10/01 03:50:15;;;;;;;6.88;1.00;;;12.30;99.90;;;;;;5062267;28;20107;-67
2021/10/01 03:52:41;;;;;;;5.60;0.65;;;12.20;99.90;;;;;;5061258;28;20036;-67
2021/10/01 03:55:08;;;;;;;5.10;0.98;;;12.20;99.90;;;;;;5058998;28;20129;-67
2021/10/01 03:57:35;;;;;;;6.25;0.70;;;12.20;99.90;;;;;;5059640;28;20045;-67
2021/10/01 04:00:05;;;;;;;5.00;0.70;;;12.20;99.90;;;;;;5058345;28;20043;-67
2021/10/01 04:02:30;;;;;;;5.63;1.10;;;12.20;99.90;;;;;;5060140;28;20047;-67
2021/10/01 04:04:56;;;;;;;4.43;1.13;;;12.20;99.90;;;;;;5081634;28;20044;-67
2021/10/01 04:07:21;;;;;;;7.60;1.30;;;12.20;99.90;;;;;;5075360;28;20032;-67
2021/10/01 04:09:47;;;;;;;3.25;0.70;;;12.20;99.90;;;;;;5058142;28;20044;-66
2021/10/01 04:12:12;;;;;;;5.78;0.73;;;12.20;99.90;;;;;;5077618;28;20496;-67
2021/10/01 04:14:38;;;;;;;5.75;1.02;;;12.20;99.90;;;;;;5080207;28;20122;-67
2021/10/01 04:17:04;;;;;;;5.57;0.73;;;12.10;99.90;;;;;;5057962;28;20386;-67
2021/10/01 04:19:30;;;;;;;6.88;1.02;;;12.20;99.90;;;;;;5073917;28;20082;-67
2021/10/01 04:21:55;;;;;;;8.43;1.23;;;12.10;99.90;;;;;;5076327;28;20488;-67
2021/10/01 04:24:21;;;;;;;6.40;0.60;;;12.10;99.90;;;;;;5041792;28;20036;-67
2021/10/01 04:26:47;;;;;;;10.60;1.00;;;12.10;99.90;;;;;;5059762;28;20146;-67
2021/10/01 04:29:12;;;;;;;7.43;0.90;;;12.10;99.90;;;;;;5056322;28;20068;-67
2021/10/01 04:31:38;;;;;;;6.32;0.65;;;12.10;99.90;;;;;;5057634;28;20048;-67
2021/10/01 04:34:04;;;;;;;6.45;1.00;;;12.00;99.90;;;;;;5056992;28;20123;-67
2021/10/01 04:36:32;;;;;;;4.82;1.42;;;12.00;99.90;;;;;;5074131;28;20082;-67
2021/10/01 04:38:57;;;;;;;3.45;0.57;;;12.00;99.90;;;;;;5057688;28;20056;-67
2021/10/01 04:41:23;;;;;;;5.88;0.77;;;12.00;99.90;;;;;;5073626;28;20052;-67
2021/10/01 04:43:49;;;;;;;3.25;0.70;;;12.00;99.90;;;;;;5078396;28;20031;-67
2021/10/01 04:46:15;;;;;;;6.15;0.68;;;12.00;99.90;;;;;;5080260;28;20044;-67
2021/10/01 04:48:41;;;;;;;8.32;1.20;;;12.00;99.90;;;;;;5056263;28;20076;-66
2021/10/01 04:51:06;;;;;;;4.82;1.10;;;12.00;99.90;;;;;;5059179;28;20072;-67
2021/10/01 04:53:32;;;;;;;6.28;0.80;;;12.00;99.90;;;;;;5057356;28;20364;-67
2021/10/01 04:55:58;;;;;;;6.68;0.70;;;11.90;99.90;;;;;;5056993;28;20052;-67
2021/10/01 04:58:24;;;;;;;6.10;0.80;;;11.90;99.90;;;;;;5076405;28;20044;-67
2021/10/01 05:00:49;;;;;;;7.47;0.82;;;11.90;99.90;;;;;;5080070;28;20075;-67
2021/10/01 05:03:15;;;;;;;5.20;0.95;;;11.90;99.90;;;;;;5078247;28;20071;-67
2021/10/01 05:05:41;;;;;;;5.00;0.68;;;11.80;99.90;;;;;;5081391;28;20040;-67
2021/10/01 05:08:06;;;;;;;5.90;0.95;;;11.90;99.90;;;;;;5079915;28;20024;-67
2021/10/01 05:10:32;;;;;;;7.60;1.00;;;11.90;99.90;;;;;;5062752;28;20037;-67
2021/10/01 05:12:57;;;;;;;6.25;0.90;;;11.90;99.90;;;;;;5079589;28;20088;-67
2021/10/01 05:15:23;;;;;;;5.13;1.20;;;11.80;99.90;;;;;;5063296;28;20520;-67
2021/10/01 05:17:51;;;;;;;4.72;0.70;;;11.80;99.90;;;;;;5083008;28;20481;-67
2021/10/01 05:20:16;;;;;;;3.97;0.60;;;11.90;99.90;;;;;;5065807;28;20044;-67
2021/10/01 05:22:42;;;;;;;5.28;1.00;;;11.90;99.90;;;;;;5063688;28;20112;-67
2021/10/01 05:25:09;;;;;;;3.15;0.65;;;11.80;99.90;;;;;;5084157;28;20036;-67
2021/10/01 05:27:35;;;;;;;7.00;0.50;;;11.90;99.90;;;;;;5065593;28;20043;-67
2021/10/01 05:30:02;;;;;;;4.95;0.85;;;11.90;99.90;;;;;;5068053;28;20063;-67
2021/10/01 05:32:28;;;;;;;5.05;0.93;;;12.00;99.90;;;;;;5062303;28;20167;-67
2021/10/01 05:34:53;;;;;;;5.22;1.02;;;11.90;99.90;;;;;;5084470;28;20502;-67
2021/10/01 05:37:19;;;;;;;5.43;0.90;;;11.90;99.90;;;;;;5083554;28;20074;-67
2021/10/01 05:39:45;;;;;;;9.77;0.90;;;11.90;99.90;;;;;;5058084;28;20040;-67
2021/10/01 05:42:11;;;;;;;4.40;0.80;;;11.90;99.90;;;;;;5063109;28;20105;-67
2021/10/01 05:44:37;;;;;;;5.75;0.75;;;12.00;99.90;;;;;;5081703;28;20032;-67
2021/10/01 05:47:05;;;;;;;4.10;0.70;;;11.90;99.90;;;;;;5062728;28;20101;-67
2021/10/01 05:49:37;;;;;;;4.25;0.80;;;12.00;99.90;;;;;;5083157;28;20452;-66
2021/10/01 05:52:27;;;;;;;4.10;0.80;;;11.90;99.90;;;;;;5080637;28;20046;-67
2021/10/01 05:54:52;;;;;;;2.97;0.57;;;12.00;99.90;;;;;;5064478;28;20048;-66
2021/10/01 05:57:19;;;;;;;7.43;0.63;;;11.90;99.90;;;;;;5063467;28;20063;-66
2021/10/01 05:59:46;;;;;;;4.28;0.73;;;12.00;99.90;;;;;;5060481;28;21023;-67
2021/10/01 06:02:14;;;;;;;3.33;0.60;;;11.90;99.90;;;;;;5077242;28;20051;-67
2021/10/01 06:04:42;;;;;;;4.57;0.60;;;12.00;99.90;;;;;;5063776;28;20044;-66
2021/10/01 06:07:08;;;;;;;2.75;0.52;;;12.00;99.90;;;;;;5057023;28;20032;-67
2021/10/01 06:09:34;;;;;;;4.50;0.63;;;12.00;99.90;;;;;;5073659;28;20151;-67
2021/10/01 06:12:00;;;;;;;6.88;0.90;;;12.10;99.90;;;;;;5066359;28;20085;-67
2021/10/01 06:14:26;;;;;;;13.30;1.55;;;12.00;99.90;;;;;;5069577;28;20045;-67
2021/10/01 06:16:53;;;;;;;4.15;0.73;;;12.00;99.90;;;;;;5071860;28;20444;-67
2021/10/01 06:19:20;;;;;;;3.67;0.70;;;12.00;99.90;;;;;;5038881;28;20031;-67
2021/10/01 06:21:46;;;;;;;3.30;0.63;;;12.10;99.90;;;;;;5052550;28;20169;-67
2021/10/01 06:24:12;;;;;;;5.40;1.20;;;12.20;99.90;;;;;;5071884;28;20064;-67
2021/10/01 06:26:38;;;;;;;2.17;0.55;;;12.30;99.90;;;;;;5053975;28;20136;-67
2021/10/01 06:29:04;;;;;;;3.03;0.70;;;12.40;99.90;;;;;;5071721;28;20035;-67
2021/10/01 06:31:30;;;;;;;3.75;0.50;;;12.40;99.90;;;;;;5074063;28;20056;-67
2021/10/01 06:33:56;;;;;;;7.13;1.08;;;12.40;99.90;;;;;;5053427;28;20052;-67
2021/10/01 06:36:23;;;;;;;4.28;0.60;;;12.40;99.90;;;;;;5072405;28;20040;-67
2021/10/01 06:38:50;;;;;;;6.47;0.65;;;12.40;99.90;;;;;;5053707;28;20040;-67
2021/10/01 06:41:15;;;;;;;4.18;0.70;;;12.40;99.90;;;;;;5053971;28;20040;-67
2021/10/01 06:43:43;;;;;;;3.88;1.05;;;12.30;99.90;;;;;;5052670;28;20062;-67
2021/10/01 06:46:20;;;;;;;3.42;0.65;;;12.40;99.90;;;;;;5071409;28;20048;-67
2021/10/01 08:18:27;;;;;;;6.95;0.90;;;13.90;99.90;;;;;;5056820;28;20048;-67
2021/10/01 08:20:53;;;;;;;6.57;0.77;;;14.00;99.90;;;;;;5079341;28;20043;-67
2021/10/01 08:23:19;;;;;;;2.83;0.70;;;14.00;99.90;;;;;;5056826;28;20047;-68
2021/10/01 08:25:44;;;;;;;5.05;0.88;;;14.00;99.90;;;;;;5057160;28;20063;-67
2021/10/01 08:28:10;;;;;;;6.90;1.30;;;14.00;99.90;;;;;;5074069;28;20721;-67
2021/10/01 08:30:36;;;;;;;4.07;0.90;;;14.00;99.90;;;;;;5056998;28;20543;-67
2021/10/01 08:33:03;;;;;;;4.05;0.80;;;14.00;99.90;;;;;;5074557;28;20081;-67
2021/10/01 08:35:30;;;;;;;5.35;0.70;;;14.10;99.90;;;;;;5072959;28;20862;-67
2021/10/01 08:37:57;;;;;;;6.13;0.52;;;14.10;99.90;;;;;;5056787;28;20040;-67
2021/10/01 08:40:24;;;;;;;6.90;1.00;;;14.10;99.90;;;;;;5078598;28;20064;-67
2021/10/01 08:42:51;;;;;;;4.47;0.73;;;14.10;99.90;;;;;;5054510;28;20040;-67
2021/10/01 08:45:19;;;;;;;4.65;0.82;;;14.10;99.90;;;;;;5058884;28;21146;-67
2021/10/01 08:47:45;;;;;;;6.32;0.60;;;14.10;99.90;;;;;;5072724;28;20040;-67
2021/10/01 08:50:14;;;;;;;3.88;1.00;;;14.10;99.90;;;;;;5075715;28;20036;-67
2021/10/01 08:52:40;;;;;;;4.45;0.50;;;14.10;99.90;;;;;;5054283;28;20102;-67
2021/10/01 08:55:07;;;;;;;3.28;0.50;;;14.20;99.90;;;;;;5075307;28;20567;-67
2021/10/01 08:57:33;;;;;;;4.57;0.52;;;14.20;99.90;;;;;;5073589;28;20036;-67
2021/10/01 09:00:00;;;;;;;3.67;0.70;;;14.20;99.90;;;;;;5075074;28;20025;-67
2021/10/01 09:02:26;;;;;;;5.93;1.00;;;14.20;99.90;;;;;;5057646;28;20512;-67
2021/10/01 09:04:55;;;;;;;5.65;0.82;;;14.30;99.90;;;;;;5054253;28;20048;-67
2021/10/01 09:07:23;;;;;;;5.30;0.60;;;14.40;99.90;;;;;;5056974;28;20090;-67
2021/10/01 09:09:52;;;;;;;4.90;1.13;;;14.50;99.90;;;;;;5067737;28;20093;-67
2021/10/01 09:12:18;;;;;;;4.57;0.90;;;14.50;99.90;;;;;;5074429;28;21431;-67
2021/10/01 09:14:58;;;;;;;18.52;1.20;;;14.50;99.90;;;;;;5072857;28;20498;-67
2021/10/01 09:17:29;;;;;;;6.22;1.15;;;14.50;99.90;;;;;;5054726;28;20497;-67
2021/10/01 09:19:57;;;;;;;11.10;0.70;;;14.60;99.90;;;;;;5075005;28;20092;-67
2021/10/01 09:22:23;;;;;;;2.83;0.50;;;14.70;99.90;;;;;;5054853;28;20048;-67
2021/10/01 09:24:49;;;;;;;5.95;0.40;;;14.70;99.90;;;;;;5072567;28;20036;-67
2021/10/01 09:27:15;;;;;;;3.30;0.70;;;14.70;99.90;;;;;;5053438;28;20094;-68
2021/10/01 09:29:43;;;;;;;4.32;0.55;;;14.70;99.90;;;;;;5073133;28;20036;-68
2021/10/01 09:32:16;;;;;;;3.58;0.70;;;14.60;99.90;;;;;;5053792;28;20055;-68
2021/10/01 09:34:46;;;;;;;4.07;0.55;;;14.70;99.90;;;;;;5075439;28;20043;-67
2021/10/01 09:37:15;;;;;;;14.35;1.38;;;14.70;99.90;;;;;;5053536;28;20119;-68
2021/10/01 09:39:52;;;;;;;2.83;0.57;;;14.70;99.90;;;;;;5073453;28;20032;-67
2021/10/01 09:42:23;;;;;;;3.80;0.63;;;14.80;99.90;;;;;;5056869;28;20135;-68
2021/10/01 09:44:50;;;;;;;5.20;0.75;;;14.90;99.90;;;;;;5073587;28;20040;-67
2021/10/01 09:47:23;;;;;;;2.50;0.50;;;14.90;99.90;;;;;;5055917;28;20064;-67
2021/10/01 09:49:59;;;;;;;3.38;0.73;;;15.00;99.90;;;;;;5072457;28;20498;-68
2021/10/01 09:52:38;;;;;;;;;;;15.00;99.90;;;;;;5055924;28;20055;-67
2021/10/01 09:55:08;;;;;;;4.93;0.80;;;15.00;99.90;;;;;;5056430;28;19916;-68
2021/10/01 09:57:37;;;;;;;15.60;1.00;;;15.00;99.90;;;;;;5052530;28;20085;-68
2021/10/01 10:00:05;;;;;;;3.60;0.90;;;15.00;99.90;;;;;;5055444;28;20398;-68
2021/10/01 10:02:36;;;;;;;5.70;0.55;;;15.10;99.90;;;;;;5035496;28;20080;-67
2021/10/01 10:05:02;;;;;;;3.72;0.93;;;15.10;99.90;;;;;;5040566;28;20048;-67
2021/10/01 10:07:29;;;;;;;3.15;0.70;;;15.10;99.90;;;;;;5054204;28;21013;-67
2021/10/01 10:10:07;;;;;;;5.35;0.80;;;15.10;99.90;;;;;;5071905;28;20039;-67
2021/10/01 10:12:34;;;;;;;5.75;0.70;;;15.10;99.90;;;;;;5054783;28;20093;-67
2021/10/01 10:15:02;;;;;;;3.17;0.57;;;15.10;99.90;;;;;;5071341;28;20035;-67
2021/10/01 10:17:30;;;;;;;5.25;0.63;;;15.20;99.90;;;;;;5054644;28;21511;-68
2021/10/01 10:19:59;;;;;;;3.00;0.60;;;15.20;99.90;;;;;;5046103;28;20127;-68
2021/10/01 10:22:27;;;;;;;3.75;0.85;;;15.20;99.90;;;;;;5073680;28;20395;-68
2021/10/01 10:24:54;;;;;;;4.68;0.65;;;15.20;99.90;;;;;;5055230;28;20042;-67
2021/10/01 10:27:21;;;;;;;5.95;0.95;;;15.20;99.90;;;;;;5072499;28;20047;-67
2021/10/01 10:29:48;;;;;;;8.85;1.25;;;15.20;99.90;;;;;;5037034;28;20043;-68
2021/10/01 10:32:15;;;;;;;6.05;0.70;;;15.20;99.90;;;;;;5052243;28;20511;-67
2021/10/01 10:34:53;;;;;;;4.70;0.80;;;15.20;99.90;;;;;;5053949;28;20043;-67
2021/10/01 10:37:20;;;;;;;3.35;0.90;;;15.20;99.90;;;;;;5056118;28;20032;-68
2021/10/01 10:39:48;;;;;;;4.18;0.50;;;15.20;99.90;;;;;;5059158;28;20093;-68
2021/10/01 10:42:17;;;;;;;4.30;0.70;;;15.20;99.90;;;;;;5056912;28;20044;-68
2021/10/01 10:44:54;;;;;;;3.42;0.73;;;15.30;99.90;;;;;;5059299;28;20058;-68
2021/10/01 10:47:46;;;;;;;4.47;0.60;;;15.30;99.90;;;;;;5056544;28;20040;-68
2021/10/01 10:50:35;;;;;;;7.88;0.93;;;15.30;99.90;;;;;;5060317;28;20059;-68
2021/10/01 10:53:04;;;;;;;6.28;0.68;;;15.40;99.90;;;;;;5056581;28;20058;-68
2021/10/01 10:55:31;;;;;;;9.05;0.90;;;15.50;99.90;;;;;;5054536;28;20043;-68
2021/10/01 10:57:57;;;;;;;4.40;0.60;;;15.50;99.90;;;;;;5061681;28;20062;-68
2021/10/01 11:00:41;;;;;;;6.00;0.70;;;15.60;99.90;;;;;;5075079;28;20037;-68
2021/10/01 11:03:34;;;;;;;6.93;0.47;;;15.70;99.90;;;;;;5059551;28;20042;-68
2021/10/01 11:06:09;;;;;;;7.38;0.70;;;15.80;99.90;;;;;;5054652;28;20063;-68
2021/10/01 11:08:40;;;;;;;19.67;1.80;;;16.00;99.90;;;;;;5058699;28;20052;-68
2021/10/01 11:11:26;;;;;;;4.75;0.70;;;16.00;99.90;;;;;;5060658;28;20115;-68
2021/10/01 11:13:52;;;;;;;3.95;0.75;;;16.00;99.90;;;;;;5072680;28;20045;-68
2021/10/01 11:16:19;;;;;;;3.00;0.60;;;16.10;99.90;;;;;;5056600;28;20035;-68
2021/10/01 11:18:45;;;;;;;5.53;1.77;;;16.10;99.90;;;;;;5059120;28;20070;-68
2021/10/01 11:21:29;;;;;;;3.88;0.82;;;16.10;99.90;;;;;;5057643;28;20075;-68
2021/10/01 11:23:59;;;;;;;3.53;0.40;;;16.10;99.90;;;;;;5053725;28;20052;-68
2021/10/01 11:26:36;;;;;;;5.10;1.02;;;16.10;99.90;;;;;;5074942;28;20048;-68
2021/10/01 11:29:04;;;;;;;4.65;1.00;;;16.10;99.90;;;;;;5060250;28;20483;-68
2021/10/01 11:31:41;;;;;;;2.63;0.50;;;16.00;99.90;;;;;;5057413;28;20597;-68
2021/10/01 11:34:07;;;;;;;3.80;0.80;;;15.90;99.90;;;;;;5055944;28;20060;-68
2021/10/01 11:36:39;;;;;;;4.65;0.75;;;15.90;99.90;;;;;;5076035;28;20043;-68
2021/10/01 11:39:14;;;;;;;5.28;0.95;;;15.80;99.90;;;;;;5077618;28;20068;-68
2021/10/01 11:41:45;;;;;;;4.30;0.70;;;15.70;99.90;;;;;;5058711;28;20501;-68
2021/10/01 11:44:13;;;;;;;4.53;0.70;;;15.70;99.90;;;;;;5057828;28;20075;-68
2021/10/01 11:46:43;;;;;;;6.60;1.00;;;15.70;99.90;;;;;;5059096;28;20051;-68
2021/10/01 11:49:21;;;;;;;7.95;1.00;;;15.60;99.90;;;;;;5072919;28;20032;-68
2021/10/01 11:52:02;;;;;;;5.22;0.82;;;15.50;99.90;;;;;;5056664;28;20075;-68
2021/10/01 11:54:29;;;;;;;6.07;0.90;;;15.50;99.90;;;;;;5040135;28;20040;-68
2021/10/01 11:57:06;;;;;;;1.83;0.50;;;15.30;99.90;;;;;;5073133;28;20040;-68
2021/10/01 11:59:52;;;;;;;6.05;0.80;;;15.30;99.90;;;;;;5078056;28;20047;-68
2021/10/01 12:02:38;;;;;;;5.47;1.17;;;15.20;99.90;;;;;;5056024;28;20051;-67
2021/10/01 12:05:24;;;;;;;9.68;0.98;;;15.00;99.90;;;;;;5056366;28;20097;-67
2021/10/01 12:07:55;;;;;;;7.32;2.03;;;14.90;99.90;;;;;;5054715;28;20040;-68
2021/10/01 12:10:23;;;;;;;5.60;0.88;;;14.70;99.90;;;;;;5074381;28;20043;-68
2021/10/01 12:13:09;;;;;;;8.77;1.02;;;14.50;99.90;;;;;;5055680;28;20044;-68
2021/10/01 12:15:44;;;;;;;17.60;1.80;;;14.40;99.90;;;;;;5077490;28;20050;-68
2021/10/01 12:18:45;;;;;;;3.35;0.82;;;14.30;99.90;;;;;;5055642;28;20036;-68
2021/10/01 12:21:22;;;;;;;7.93;0.80;;;14.20;99.90;;;;;;5055461;28;20494;-68
2021/10/01 12:24:00;;;;;;;4.57;0.93;;;14.20;99.90;;;;;;5074816;28;20071;-68
2021/10/01 12:26:33;;;;;;;6.47;1.10;;;14.30;99.90;;;;;;5074823;28;20132;-68
2021/10/01 12:29:20;;;;;;;5.40;1.05;;;14.30;99.90;;;;;;5075021;28;20710;-68
2021/10/01 12:31:52;;;;;;;10.20;2.28;;;14.30;99.90;;;;;;5076459;28;20043;-68
2021/10/01 12:34:20;;;;;;;8.05;1.13;;;14.40;99.90;;;;;;5074083;28;20040;-68
2021/10/01 12:36:48;;;;;;;4.15;0.90;;;14.40;99.90;;;;;;5056470;28;20687;-68
2021/10/01 12:39:15;;;;;;;2.80;1.02;;;14.40;99.90;;;;;;5055375;28;20052;-68
2021/10/01 12:41:41;;;;;;;4.65;1.75;;;14.50;99.90;;;;;;5073335;28;20113;-68
2021/10/01 12:44:14;;;;;;;4.72;1.38;;;14.50;99.90;;;;;;5055523;28;20044;-68
2021/10/01 12:46:49;;;;;;;4.47;1.20;;;14.40;99.90;;;;;;5075644;28;20040;-68
2021/10/01 12:49:29;;;;;;;4.80;1.05;;;14.50;99.90;;;;;;5058801;28;20052;-68
2021/10/01 12:52:13;;;;;;;6.38;1.05;;;14.50;99.90;;;;;;5074999;28;20116;-68
2021/10/01 12:54:46;;;;;;;7.78;1.40;;;14.60;99.90;;;;;;5055307;28;20052;-68
2021/10/01 12:57:17;;;;;;;19.30;2.42;;;14.60;99.90;;;;;;5055257;28;20045;-68
2021/10/01 12:59:55;;;;;;;6.55;1.13;;;14.60;99.90;;;;;;5056651;28;20119;-68
2021/10/01 13:02:27;;;;;;;11.07;1.80;;;14.70;99.90;;;;;;5057676;28;20175;-68
2021/10/01 13:05:05;;;;;;;6.30;1.63;;;14.70;99.90;;;;;;5055499;28;20064;-68
2021/10/01 13:07:40;;;;;;;5.65;1.58;;;14.80;99.90;;;;;;5051955;28;20055;-68
2021/10/01 13:10:15;;;;;;;6.30;1.67;;;14.80;99.90;;;;;;5074687;28;20071;-68
2021/10/01 13:12:48;;;;;;;7.40;2.13;;;14.80;99.90;;;;;;5073332;28;20040;-68
2021/10/01 13:15:16;;;;;;;5.72;1.50;;;14.90;99.90;;;;;;5075869;28;20137;-68
2021/10/01 13:17:43;;;;;;;6.30;1.38;;;15.00;99.90;;;;;;5058779;28;20039;-68
2021/10/01 13:20:10;;;;;;;6.55;1.40;;;15.00;99.90;;;;;;5077553;28;20044;-68
2021/10/01 13:22:57;;;;;;;5.05;1.38;;;15.10;99.90;;;;;;5078543;28;20775;-68
2021/10/01 13:25:29;;;;;;;5.43;0.90;;;15.10;99.90;;;;;;5079897;28;20595;-68
2021/10/01 13:27:56;;;;;;;6.97;1.10;;;15.20;99.90;;;;;;5060449;28;20424;-68
2021/10/01 13:30:22;;;;;;;5.32;1.00;;;15.20;99.90;;;;;;5076282;28;20064;-68
2021/10/01 13:32:49;;;;;;;4.15;0.90;;;15.30;99.90;;;;;;5043037;28;20040;-68
2021/10/01 13:35:15;;;;;;;6.53;1.50;;;15.30;99.90;;;;;;5056304;28;20056;-67
2021/10/01 13:37:46;;;;;;;4.85;0.60;;;15.30;99.90;;;;;;5060280;28;20126;-68
2021/10/01 13:40:13;;;;;;;2.83;0.80;;;15.40;99.90;;;;;;5059129;28;20162;-68
2021/10/01 13:42:39;;;;;;;4.28;1.08;;;15.30;99.90;;;;;;5054312;28;20040;-68
2021/10/01 13:45:07;;;;;;;8.25;1.58;;;15.30;99.90;;;;;;5074260;28;20472;-68
2021/10/01 13:47:34;;;;;;;7.20;0.73;;;15.40;99.90;;;;;;5076241;28;20490;-68
2021/10/01 13:50:00;;;;;;;6.05;0.88;;;15.30;99.90;;;;;;5054172;28;20777;-68
2021/10/01 13:52:27;;;;;;;3.55;0.55;;;15.30;99.90;;;;;;5071511;28;20502;-65
2021/10/01 13:54:53;;;;;;;5.40;0.70;;;15.40;99.90;;;;;;5078599;28;20458;-67
2021/10/01 13:57:19;;;;;;;7.72;0.75;;;15.40;99.90;;;;;;5074161;28;20130;-67
2021/10/01 13:59:45;;;;;;;4.57;0.98;;;15.40;99.90;;;;;;5059071;28;20039;-67
2021/10/01 14:02:11;;;;;;;5.75;1.17;;;15.40;99.90;;;;;;5074085;28;20047;-67
2021/10/01 14:04:36;;;;;;;4.28;0.90;;;15.40;99.90;;;;;;5079727;28;20160;-67
2021/10/01 14:07:02;;;;;;;3.00;0.63;;;15.40;99.90;;;;;;5073732;28;20106;-67
2021/10/01 14:09:28;;;;;;;4.88;0.65;;;15.40;99.90;;;;;;5074938;28;20044;-67
2021/10/01 14:11:54;;;;;;;6.72;0.80;;;15.40;99.90;;;;;;5056762;28;20040;-68
2021/10/01 14:14:20;;;;;;;4.80;1.10;;;15.40;99.90;;;;;;5063397;28;20028;-68
2021/10/01 14:16:46;;;;;;;2.42;0.70;;;15.40;99.90;;;;;;5080286;28;20052;-67
2021/10/01 14:19:11;;;;;;;2.92;0.82;;;15.40;99.90;;;;;;5062878;28;20048;-67
2021/10/01 14:21:37;;;;;;;9.13;1.52;;;15.40;99.90;;;;;;5064930;28;20436;-67
2021/10/01 14:24:03;;;;;;;7.50;1.15;;;15.40;99.90;;;;;;5063461;28;20044;-67
2021/10/01 14:26:30;;;;;;;4.60;0.80;;;15.40;99.90;;;;;;5081399;28;20707;-67
2021/10/01 14:28:56;;;;;;;5.63;0.70;;;15.30;99.90;;;;;;5064615;28;20044;-67